DLH33K LPPR-EDDM
Flight info
| Callsign | DLH33K |
|---|---|
| Flight time | 2h 24m |
| Altitude | 36000 |
| Route | BELDU DCT ADORO DCT FITSE DCT DGO DCT LPA DCT GOSVI DCT TOPTU DCT TOU DCT GAI DCT MEN DCT NINUN DCT LATAM DCT ETREK DCT LTP DCT SOPLO DCT OMASI DCT KINNI DCT SOSAL DCT KORED DCT BERSU N871 DITON/N0447F370 DCT NUNRI T103 BETOS BETOS1B |
| Aircraft | A321/M-SDE2E3FGIJ1LORWXYZ/HB1 |
Departure
| Time | 2026-05-07 14:15 |
|---|---|
| Airport | Francisco de Sá Carneiro Airport (LPPR) |
Arrival
| Time | 2026-05-07 16:39 |
|---|---|
| Airport | Munich Airport (EDDM) |
| Time | Latitude | Longitude | Altitude | Speed | Heading |
|---|---|---|---|---|---|
| 2026-05-07 13:42 | 41.23732 | -8.67270 | 245 ft | 0 kts | 69° |
| 2026-05-07 14:08 | 41.23724 | -8.67299 | 245 ft | 4 kts | 69° |
| 2026-05-07 14:08 | 41.23716 | -8.67326 | 243 ft | 4 kts | 71° |
| 2026-05-07 14:08 | 41.23711 | -8.67360 | 242 ft | 4 kts | 99° |
| 2026-05-07 14:08 | 41.23720 | -8.67392 | 241 ft | 3 kts | 126° |
| 2026-05-07 14:09 | 41.23722 | -8.67396 | 240 ft | 0 kts | 127° |
| 2026-05-07 14:11 | 41.23717 | -8.67387 | 241 ft | 3 kts | 127° |
| 2026-05-07 14:11 | 41.23687 | -8.67353 | 242 ft | 8 kts | 147° |
| 2026-05-07 14:12 | 41.23613 | -8.67330 | 242 ft | 14 kts | 183° |
| 2026-05-07 14:12 | 41.23519 | -8.67380 | 240 ft | 15 kts | 196° |
| 2026-05-07 14:12 | 41.23406 | -8.67372 | 239 ft | 15 kts | 168° |
| 2026-05-07 14:12 | 41.23328 | -8.67448 | 239 ft | 16 kts | 259° |
| 2026-05-07 14:13 | 41.23309 | -8.67582 | 238 ft | 15 kts | 259° |
| 2026-05-07 14:13 | 41.23293 | -8.67707 | 238 ft | 9 kts | 263° |
| 2026-05-07 14:13 | 41.23311 | -8.67740 | 238 ft | 5 kts | 354° |
| 2026-05-07 14:13 | 41.23349 | -8.67745 | 238 ft | 6 kts | 353° |
| 2026-05-07 14:14 | 41.23400 | -8.67756 | 237 ft | 10 kts | 349° |
| 2026-05-07 14:14 | 41.23658 | -8.67824 | 231 ft | 75 kts | 348° |
| 2026-05-07 14:14 | 41.24401 | -8.68020 | 210 ft | 140 kts | 349° |
| 2026-05-07 14:14 | 41.25514 | -8.68319 | 306 ft | 178 kts | 347° |
| 2026-05-07 14:15 | 41.26735 | -8.68642 | 982 ft | 179 kts | 347° |
| 2026-05-07 14:15 | 41.27958 | -8.68960 | 1672 ft | 183 kts | 347° |
| 2026-05-07 14:15 | 41.29280 | -8.69306 | 2030 ft | 205 kts | 347° |
| 2026-05-07 14:15 | 41.30758 | -8.69695 | 2231 ft | 228 kts | 347° |
| 2026-05-07 14:16 | 41.32407 | -8.70126 | 2508 ft | 253 kts | 348° |
| 2026-05-07 14:16 | 41.34177 | -8.70584 | 3063 ft | 264 kts | 348° |
| 2026-05-07 14:16 | 41.35992 | -8.71058 | 3763 ft | 268 kts | 349° |
| 2026-05-07 14:16 | 41.37838 | -8.71543 | 4477 ft | 273 kts | 348° |
| 2026-05-07 14:17 | 41.39740 | -8.71722 | 5184 ft | 277 kts | 9° |
| 2026-05-07 14:17 | 41.41529 | -8.70791 | 5857 ft | 280 kts | 37° |
| 2026-05-07 14:17 | 41.42818 | -8.68881 | 6538 ft | 280 kts | 64° |
| 2026-05-07 14:17 | 41.43395 | -8.66413 | 7205 ft | 280 kts | 81° |
| 2026-05-07 14:18 | 41.43770 | -8.63850 | 7895 ft | 284 kts | 81° |
| 2026-05-07 14:18 | 41.44145 | -8.61252 | 8558 ft | 286 kts | 83° |
| 2026-05-07 14:18 | 41.44247 | -8.58605 | 9202 ft | 287 kts | 97° |
| 2026-05-07 14:18 | 41.43982 | -8.55952 | 9854 ft | 290 kts | 100° |
| 2026-05-07 14:19 | 41.43699 | -8.53246 | 10234 ft | 304 kts | 100° |
| 2026-05-07 14:19 | 41.43404 | -8.50349 | 10367 ft | 325 kts | 99° |
| 2026-05-07 14:19 | 41.43096 | -8.47301 | 10658 ft | 338 kts | 99° |
| 2026-05-07 14:19 | 41.42781 | -8.44165 | 11218 ft | 343 kts | 99° |
| 2026-05-07 14:20 | 41.42463 | -8.41004 | 11817 ft | 346 kts | 99° |
| 2026-05-07 14:20 | 41.42140 | -8.37816 | 12409 ft | 348 kts | 99° |
| 2026-05-07 14:20 | 41.41816 | -8.34642 | 12974 ft | 352 kts | 99° |
| 2026-05-07 14:20 | 41.41486 | -8.31401 | 13530 ft | 355 kts | 99° |
| 2026-05-07 14:21 | 41.41149 | -8.28087 | 14069 ft | 358 kts | 99° |
| 2026-05-07 14:21 | 41.40815 | -8.24822 | 14610 ft | 362 kts | 99° |
| 2026-05-07 14:21 | 41.40472 | -8.21491 | 15151 ft | 365 kts | 99° |
| 2026-05-07 14:21 | 41.40123 | -8.18118 | 15678 ft | 368 kts | 99° |
| 2026-05-07 14:22 | 41.39773 | -8.14729 | 16192 ft | 371 kts | 99° |
| 2026-05-07 14:22 | 41.39421 | -8.11306 | 16684 ft | 375 kts | 99° |
| 2026-05-07 14:22 | 41.39063 | -8.07854 | 17163 ft | 378 kts | 99° |
| 2026-05-07 14:22 | 41.38699 | -8.04378 | 17636 ft | 381 kts | 99° |
| 2026-05-07 14:23 | 41.38328 | -8.00872 | 18102 ft | 384 kts | 99° |
| 2026-05-07 14:23 | 41.37953 | -7.97343 | 18553 ft | 387 kts | 99° |
| 2026-05-07 14:23 | 41.37576 | -7.93788 | 19032 ft | 389 kts | 99° |
| 2026-05-07 14:23 | 41.37196 | -7.90203 | 19517 ft | 392 kts | 99° |
| 2026-05-07 14:24 | 41.36811 | -7.86599 | 19938 ft | 395 kts | 99° |
| 2026-05-07 14:24 | 41.36423 | -7.82965 | 20359 ft | 398 kts | 99° |
| 2026-05-07 14:24 | 41.36061 | -7.79305 | 20756 ft | 401 kts | 95° |
| 2026-05-07 14:24 | 41.36058 | -7.75583 | 21139 ft | 404 kts | 85° |
| 2026-05-07 14:25 | 41.36386 | -7.71845 | 21545 ft | 407 kts | 83° |
| 2026-05-07 14:25 | 41.36719 | -7.68153 | 21925 ft | 409 kts | 83° |
| 2026-05-07 14:25 | 41.37055 | -7.64378 | 22304 ft | 411 kts | 83° |
| 2026-05-07 14:25 | 41.37391 | -7.60588 | 22676 ft | 414 kts | 83° |
| 2026-05-07 14:26 | 41.37730 | -7.56771 | 23042 ft | 417 kts | 83° |
| 2026-05-07 14:26 | 41.38069 | -7.52931 | 23405 ft | 419 kts | 83° |
| 2026-05-07 14:26 | 41.38405 | -7.49077 | 23773 ft | 421 kts | 83° |
| 2026-05-07 14:26 | 41.38741 | -7.45204 | 24126 ft | 423 kts | 83° |
| 2026-05-07 14:27 | 41.39078 | -7.41297 | 24475 ft | 425 kts | 83° |
| 2026-05-07 14:27 | 41.39417 | -7.37378 | 24805 ft | 427 kts | 83° |
| 2026-05-07 14:27 | 41.39757 | -7.33429 | 25122 ft | 430 kts | 83° |
| 2026-05-07 14:27 | 41.40092 | -7.29473 | 25408 ft | 432 kts | 83° |
| 2026-05-07 14:28 | 41.40428 | -7.25480 | 25699 ft | 435 kts | 83° |
| 2026-05-07 14:28 | 41.40769 | -7.21471 | 25999 ft | 437 kts | 83° |
| 2026-05-07 14:28 | 41.41113 | -7.17430 | 26293 ft | 440 kts | 83° |
| 2026-05-07 14:28 | 41.41456 | -7.13375 | 26584 ft | 442 kts | 83° |
| 2026-05-07 14:29 | 41.41799 | -7.09290 | 26872 ft | 444 kts | 83° |
| 2026-05-07 14:29 | 41.42140 | -7.05196 | 27170 ft | 446 kts | 83° |
| 2026-05-07 14:29 | 41.42482 | -7.01074 | 27455 ft | 448 kts | 83° |
| 2026-05-07 14:29 | 41.42826 | -6.96934 | 27749 ft | 450 kts | 83° |
| 2026-05-07 14:30 | 41.43170 | -6.92784 | 28018 ft | 452 kts | 83° |
| 2026-05-07 14:30 | 41.43514 | -6.88613 | 28299 ft | 454 kts | 83° |
| 2026-05-07 14:30 | 41.43856 | -6.84415 | 28572 ft | 456 kts | 83° |
| 2026-05-07 14:30 | 41.44198 | -6.80200 | 28841 ft | 458 kts | 83° |
| 2026-05-07 14:31 | 41.44540 | -6.75980 | 29118 ft | 459 kts | 83° |
| 2026-05-07 14:31 | 41.44885 | -6.71745 | 29384 ft | 461 kts | 83° |
| 2026-05-07 14:31 | 41.45230 | -6.67485 | 29635 ft | 463 kts | 84° |
| 2026-05-07 14:31 | 41.45572 | -6.63221 | 29886 ft | 464 kts | 84° |
| 2026-05-07 14:32 | 41.45913 | -6.58927 | 30118 ft | 465 kts | 84° |
| 2026-05-07 14:32 | 41.46248 | -6.54635 | 30351 ft | 466 kts | 84° |
| 2026-05-07 14:32 | 41.46582 | -6.50327 | 30561 ft | 468 kts | 84° |
| 2026-05-07 14:32 | 41.46917 | -6.46007 | 30762 ft | 469 kts | 84° |
| 2026-05-07 14:33 | 41.47251 | -6.41678 | 31029 ft | 469 kts | 84° |
| 2026-05-07 14:33 | 41.47580 | -6.37414 | 31303 ft | 468 kts | 85° |
| 2026-05-07 14:33 | 41.47913 | -6.33096 | 31556 ft | 468 kts | 85° |
| 2026-05-07 14:33 | 41.48398 | -6.28809 | 31807 ft | 468 kts | 77° |
| 2026-05-07 14:34 | 41.49326 | -6.24646 | 32048 ft | 468 kts | 69° |
| 2026-05-07 14:34 | 41.50552 | -6.20628 | 32276 ft | 468 kts | 68° |
| 2026-05-07 14:34 | 41.51785 | -6.16605 | 32497 ft | 468 kts | 68° |
| 2026-05-07 14:34 | 41.53011 | -6.12581 | 32710 ft | 468 kts | 68° |
| 2026-05-07 14:35 | 41.54230 | -6.08553 | 32922 ft | 468 kts | 69° |
| 2026-05-07 14:35 | 41.55446 | -6.04523 | 33118 ft | 469 kts | 69° |
| 2026-05-07 14:35 | 41.56662 | -6.00482 | 33324 ft | 469 kts | 69° |
| 2026-05-07 14:35 | 41.57876 | -5.96440 | 33508 ft | 469 kts | 69° |
| 2026-05-07 14:36 | 41.59091 | -5.92392 | 33713 ft | 469 kts | 69° |
| 2026-05-07 14:36 | 41.60301 | -5.88346 | 33918 ft | 469 kts | 69° |
| 2026-05-07 14:36 | 41.61511 | -5.84292 | 34103 ft | 470 kts | 69° |
| 2026-05-07 14:36 | 41.62724 | -5.80242 | 34280 ft | 470 kts | 69° |
| 2026-05-07 14:37 | 41.63939 | -5.76186 | 34469 ft | 470 kts | 69° |
| 2026-05-07 14:37 | 41.66365 | -5.68073 | 34838 ft | 470 kts | 69° |
| 2026-05-07 14:37 | 41.67573 | -5.64011 | 35016 ft | 470 kts | 69° |
| 2026-05-07 14:38 | 41.68776 | -5.59941 | 35180 ft | 470 kts | 69° |
| 2026-05-07 14:38 | 41.69961 | -5.55928 | 35331 ft | 471 kts | 69° |
| 2026-05-07 14:38 | 41.71185 | -5.51794 | 35497 ft | 471 kts | 69° |
| 2026-05-07 14:38 | 41.72377 | -5.47773 | 35672 ft | 471 kts | 69° |
| 2026-05-07 14:39 | 41.73598 | -5.43644 | 35837 ft | 472 kts | 69° |
| 2026-05-07 14:39 | 41.74789 | -5.39606 | 35906 ft | 472 kts | 69° |
| 2026-05-07 14:39 | 41.77194 | -5.31430 | 35916 ft | 471 kts | 69° |
| 2026-05-07 14:40 | 41.79593 | -5.23269 | 35915 ft | 471 kts | 69° |
| 2026-05-07 14:40 | 41.81988 | -5.15089 | 35915 ft | 471 kts | 70° |
| 2026-05-07 14:41 | 41.84372 | -5.06890 | 35915 ft | 472 kts | 70° |
| 2026-05-07 14:41 | 41.86755 | -4.98678 | 35925 ft | 473 kts | 70° |
| 2026-05-07 14:42 | 41.89140 | -4.90455 | 35926 ft | 473 kts | 70° |
| 2026-05-07 14:42 | 41.91518 | -4.82221 | 35930 ft | 473 kts | 71° |
| 2026-05-07 14:43 | 41.93881 | -4.73981 | 35934 ft | 473 kts | 71° |
| 2026-05-07 14:43 | 41.96248 | -4.65714 | 35932 ft | 474 kts | 71° |
| 2026-05-07 14:44 | 41.98613 | -4.57450 | 35934 ft | 474 kts | 71° |
| 2026-05-07 14:44 | 42.00974 | -4.49179 | 35936 ft | 474 kts | 71° |
| 2026-05-07 14:45 | 42.03326 | -4.40899 | 35939 ft | 474 kts | 72° |
| 2026-05-07 14:45 | 42.05663 | -4.32614 | 35939 ft | 473 kts | 72° |
| 2026-05-07 14:46 | 42.07995 | -4.24322 | 35938 ft | 474 kts | 72° |
| 2026-05-07 14:46 | 42.10329 | -4.16028 | 35937 ft | 474 kts | 72° |
| 2026-05-07 14:47 | 42.12644 | -4.07789 | 35938 ft | 473 kts | 72° |
| 2026-05-07 14:47 | 42.14961 | -3.99496 | 35938 ft | 473 kts | 72° |
| 2026-05-07 14:48 | 42.17272 | -3.91182 | 35937 ft | 473 kts | 72° |
| 2026-05-07 14:48 | 42.19577 | -3.82881 | 35938 ft | 472 kts | 72° |
| 2026-05-07 14:49 | 42.21868 | -3.74588 | 35936 ft | 472 kts | 72° |
| 2026-05-07 14:49 | 42.24155 | -3.66277 | 35939 ft | 472 kts | 72° |
| 2026-05-07 14:50 | 42.26441 | -3.57957 | 35940 ft | 473 kts | 72° |
| 2026-05-07 14:50 | 42.28721 | -3.49625 | 35942 ft | 473 kts | 72° |
| 2026-05-07 14:51 | 42.30997 | -3.41287 | 35944 ft | 473 kts | 72° |
| 2026-05-07 14:51 | 42.33269 | -3.32941 | 35943 ft | 473 kts | 72° |
| 2026-05-07 14:52 | 42.35532 | -3.24591 | 35944 ft | 473 kts | 73° |
| 2026-05-07 14:52 | 42.37773 | -3.16282 | 35944 ft | 473 kts | 73° |
| 2026-05-07 14:53 | 42.40030 | -3.07913 | 35940 ft | 474 kts | 73° |
| 2026-05-07 14:53 | 42.42279 | -2.99536 | 35941 ft | 473 kts | 73° |
| 2026-05-07 14:54 | 42.44480 | -2.91139 | 35940 ft | 472 kts | 77° |
| 2026-05-07 14:54 | 42.45424 | -2.82454 | 35937 ft | 464 kts | 93° |
| 2026-05-07 14:55 | 42.45535 | -2.73711 | 35935 ft | 465 kts | 92° |
| 2026-05-07 14:55 | 42.45659 | -2.64959 | 35935 ft | 465 kts | 92° |
| 2026-05-07 14:56 | 42.45779 | -2.56215 | 35939 ft | 465 kts | 92° |
| 2026-05-07 14:56 | 42.45892 | -2.47455 | 35943 ft | 465 kts | 92° |
| 2026-05-07 14:57 | 42.45989 | -2.38692 | 35945 ft | 465 kts | 93° |
| 2026-05-07 14:57 | 42.46502 | -2.29939 | 35945 ft | 471 kts | 81° |
| 2026-05-07 14:58 | 42.47957 | -2.21285 | 35946 ft | 471 kts | 80° |
| 2026-05-07 14:58 | 42.49405 | -2.12623 | 35944 ft | 471 kts | 81° |
| 2026-05-07 14:59 | 42.50602 | -2.05413 | 35944 ft | 471 kts | 81° |
| 2026-05-07 14:59 | 42.52028 | -1.96744 | 35945 ft | 471 kts | 81° |
| 2026-05-07 15:00 | 42.53446 | -1.88067 | 35951 ft | 472 kts | 81° |
| 2026-05-07 15:00 | 42.54859 | -1.79378 | 35954 ft | 472 kts | 81° |
| 2026-05-07 15:01 | 42.56262 | -1.70697 | 35959 ft | 471 kts | 81° |
| 2026-05-07 15:01 | 42.57661 | -1.62015 | 35960 ft | 471 kts | 81° |
| 2026-05-07 15:02 | 42.59057 | -1.53331 | 35960 ft | 471 kts | 81° |
| 2026-05-07 15:02 | 42.60443 | -1.44694 | 35960 ft | 471 kts | 81° |
| 2026-05-07 15:03 | 42.61821 | -1.36000 | 35961 ft | 471 kts | 81° |
| 2026-05-07 15:03 | 42.63195 | -1.27300 | 35964 ft | 471 kts | 81° |
| 2026-05-07 15:04 | 42.64561 | -1.18598 | 35966 ft | 471 kts | 81° |
| 2026-05-07 15:04 | 42.65925 | -1.09887 | 35964 ft | 471 kts | 81° |
| 2026-05-07 15:05 | 42.67282 | -1.01181 | 35965 ft | 471 kts | 81° |
| 2026-05-07 15:05 | 42.68636 | -0.92464 | 35966 ft | 471 kts | 81° |
| 2026-05-07 15:06 | 42.69977 | -0.83745 | 35966 ft | 472 kts | 81° |
| 2026-05-07 15:06 | 42.71307 | -0.75012 | 35962 ft | 472 kts | 82° |
| 2026-05-07 15:07 | 42.72640 | -0.66266 | 35958 ft | 472 kts | 82° |
| 2026-05-07 15:07 | 42.73974 | -0.57514 | 35957 ft | 473 kts | 82° |
| 2026-05-07 15:08 | 42.75296 | -0.48761 | 35956 ft | 473 kts | 82° |
| 2026-05-07 15:08 | 42.76601 | -0.39996 | 35953 ft | 473 kts | 82° |
| 2026-05-07 15:09 | 42.77909 | -0.31223 | 35957 ft | 473 kts | 82° |
| 2026-05-07 15:09 | 42.79424 | -0.22500 | 35959 ft | 477 kts | 73° |
| 2026-05-07 15:10 | 42.82549 | -0.14582 | 35956 ft | 482 kts | 54° |
| 2026-05-07 15:10 | 42.86805 | -0.07512 | 35958 ft | 483 kts | 52° |
| 2026-05-07 15:11 | 42.91062 | -0.00434 | 35959 ft | 483 kts | 52° |
| 2026-05-07 15:11 | 42.95312 | 0.06678 | 35952 ft | 484 kts | 52° |
| 2026-05-07 15:12 | 42.99577 | 0.13820 | 35933 ft | 487 kts | 52° |
| 2026-05-07 15:12 | 43.03860 | 0.21012 | 35934 ft | 489 kts | 52° |
| 2026-05-07 15:13 | 43.08156 | 0.28226 | 35941 ft | 490 kts | 52° |
| 2026-05-07 15:13 | 43.12447 | 0.35469 | 35958 ft | 490 kts | 52° |
| 2026-05-07 15:14 | 43.16736 | 0.42725 | 35969 ft | 490 kts | 52° |
| 2026-05-07 15:14 | 43.21023 | 0.49979 | 35967 ft | 489 kts | 52° |
| 2026-05-07 15:15 | 43.25302 | 0.57241 | 35967 ft | 489 kts | 52° |
| 2026-05-07 15:15 | 43.29560 | 0.64512 | 35974 ft | 488 kts | 52° |
| 2026-05-07 15:16 | 43.33815 | 0.71790 | 35984 ft | 489 kts | 52° |
| 2026-05-07 15:16 | 43.38047 | 0.79031 | 35982 ft | 489 kts | 52° |
| 2026-05-07 15:17 | 43.42305 | 0.86322 | 35984 ft | 489 kts | 52° |
| 2026-05-07 15:17 | 43.46558 | 0.93633 | 35990 ft | 489 kts | 52° |
| 2026-05-07 15:18 | 43.50800 | 1.00951 | 35996 ft | 489 kts | 52° |
| 2026-05-07 15:18 | 43.55031 | 1.08284 | 35996 ft | 488 kts | 52° |
| 2026-05-07 15:19 | 43.59253 | 1.15616 | 35997 ft | 488 kts | 52° |
| 2026-05-07 15:19 | 43.63477 | 1.22942 | 35996 ft | 488 kts | 52° |
| 2026-05-07 15:20 | 43.67690 | 1.30278 | 35996 ft | 488 kts | 52° |
| 2026-05-07 15:20 | 43.71810 | 1.37711 | 35998 ft | 487 kts | 54° |
| 2026-05-07 15:21 | 43.75795 | 1.45284 | 35997 ft | 487 kts | 55° |
| 2026-05-07 15:21 | 43.79766 | 1.52873 | 35999 ft | 487 kts | 54° |
| 2026-05-07 15:22 | 43.83769 | 1.60431 | 36000 ft | 487 kts | 54° |
| 2026-05-07 15:22 | 43.87789 | 1.67974 | 35996 ft | 486 kts | 54° |
| 2026-05-07 15:23 | 43.91793 | 1.75530 | 35996 ft | 486 kts | 54° |
| 2026-05-07 15:23 | 43.95773 | 1.83100 | 35996 ft | 485 kts | 54° |
| 2026-05-07 15:24 | 43.99624 | 1.90700 | 36000 ft | 485 kts | 56° |
| 2026-05-07 15:24 | 44.03426 | 1.98428 | 35996 ft | 484 kts | 56° |
| 2026-05-07 15:25 | 44.07232 | 2.06163 | 35987 ft | 484 kts | 56° |
| 2026-05-07 15:25 | 44.11042 | 2.13850 | 35997 ft | 483 kts | 56° |
| 2026-05-07 15:26 | 44.14862 | 2.21552 | 35990 ft | 483 kts | 56° |
| 2026-05-07 15:26 | 44.18669 | 2.29265 | 35992 ft | 483 kts | 56° |
| 2026-05-07 15:27 | 44.22465 | 2.36995 | 35992 ft | 483 kts | 56° |
| 2026-05-07 15:27 | 44.26261 | 2.44726 | 35987 ft | 483 kts | 56° |
| 2026-05-07 15:28 | 44.30051 | 2.52462 | 35989 ft | 483 kts | 56° |
| 2026-05-07 15:28 | 44.33828 | 2.60214 | 35981 ft | 483 kts | 56° |
| 2026-05-07 15:29 | 44.37577 | 2.67932 | 35976 ft | 483 kts | 56° |
| 2026-05-07 15:29 | 44.41349 | 2.75713 | 35983 ft | 483 kts | 56° |
| 2026-05-07 15:30 | 44.45125 | 2.83502 | 35988 ft | 484 kts | 56° |
| 2026-05-07 15:30 | 44.48888 | 2.91316 | 35995 ft | 484 kts | 56° |
| 2026-05-07 15:31 | 44.52652 | 2.99142 | 35993 ft | 484 kts | 56° |
| 2026-05-07 15:31 | 44.56416 | 3.06978 | 36002 ft | 485 kts | 56° |
| 2026-05-07 15:32 | 44.60164 | 3.14832 | 36002 ft | 485 kts | 56° |
| 2026-05-07 15:32 | 44.63721 | 3.22878 | 35999 ft | 485 kts | 60° |
| 2026-05-07 15:33 | 44.66966 | 3.31181 | 36005 ft | 485 kts | 62° |
| 2026-05-07 15:33 | 44.70164 | 3.39525 | 35998 ft | 485 kts | 61° |
| 2026-05-07 15:34 | 44.73444 | 3.47817 | 36001 ft | 485 kts | 60° |
| 2026-05-07 15:34 | 44.76766 | 3.56085 | 36004 ft | 485 kts | 60° |
| 2026-05-07 15:35 | 44.80084 | 3.64378 | 36008 ft | 486 kts | 60° |
| 2026-05-07 15:35 | 44.83348 | 3.72626 | 36010 ft | 486 kts | 61° |
| 2026-05-07 15:36 | 44.86627 | 3.80955 | 36011 ft | 486 kts | 61° |
| 2026-05-07 15:36 | 44.89899 | 3.89293 | 36013 ft | 486 kts | 61° |
| 2026-05-07 15:37 | 44.93167 | 3.97659 | 36014 ft | 486 kts | 61° |
| 2026-05-07 15:37 | 44.96429 | 4.06020 | 36013 ft | 487 kts | 60° |
| 2026-05-07 15:38 | 44.99699 | 4.14407 | 36013 ft | 487 kts | 60° |
| 2026-05-07 15:38 | 45.02963 | 4.22806 | 36010 ft | 488 kts | 60° |
| 2026-05-07 15:39 | 45.06205 | 4.31165 | 36012 ft | 488 kts | 61° |
| 2026-05-07 15:39 | 45.09457 | 4.39598 | 36016 ft | 488 kts | 61° |
| 2026-05-07 15:40 | 45.12705 | 4.48037 | 36015 ft | 488 kts | 60° |
| 2026-05-07 15:40 | 45.15953 | 4.56486 | 36013 ft | 488 kts | 61° |
| 2026-05-07 15:41 | 45.19187 | 4.64951 | 36014 ft | 488 kts | 61° |
| 2026-05-07 15:41 | 45.22415 | 4.73425 | 36014 ft | 488 kts | 61° |
| 2026-05-07 15:42 | 45.25645 | 4.81909 | 36012 ft | 489 kts | 61° |
| 2026-05-07 15:42 | 45.28864 | 4.90406 | 36009 ft | 489 kts | 61° |
| 2026-05-07 15:43 | 45.32073 | 4.98907 | 36005 ft | 489 kts | 61° |
| 2026-05-07 15:43 | 45.35276 | 5.07423 | 36002 ft | 489 kts | 61° |
| 2026-05-07 15:44 | 45.38474 | 5.15953 | 36000 ft | 489 kts | 61° |
| 2026-05-07 15:44 | 45.41674 | 5.24491 | 36000 ft | 489 kts | 61° |
| 2026-05-07 15:45 | 45.44872 | 5.33044 | 35996 ft | 489 kts | 61° |
| 2026-05-07 15:45 | 45.48163 | 5.41527 | 35997 ft | 488 kts | 54° |
| 2026-05-07 15:46 | 45.52640 | 5.48684 | 35999 ft | 482 kts | 38° |
| 2026-05-07 15:46 | 45.55149 | 5.51856 | 35992 ft | 483 kts | 38° |
| 2026-05-07 15:47 | 45.60164 | 5.58235 | 35994 ft | 483 kts | 39° |
| 2026-05-07 15:47 | 45.65167 | 5.64666 | 35995 ft | 483 kts | 39° |
| 2026-05-07 15:48 | 45.70167 | 5.71096 | 35997 ft | 483 kts | 39° |
| 2026-05-07 15:48 | 45.75170 | 5.77516 | 35999 ft | 484 kts | 38° |
| 2026-05-07 15:49 | 45.79339 | 5.82862 | 35990 ft | 484 kts | 39° |
| 2026-05-07 15:49 | 45.84349 | 5.89307 | 35991 ft | 484 kts | 38° |
| 2026-05-07 15:50 | 45.89351 | 5.95765 | 35995 ft | 483 kts | 39° |
| 2026-05-07 15:50 | 45.94337 | 6.02229 | 35993 ft | 483 kts | 39° |
| 2026-05-07 15:51 | 45.99335 | 6.08706 | 36001 ft | 483 kts | 39° |
| 2026-05-07 15:51 | 46.04321 | 6.15192 | 36001 ft | 483 kts | 39° |
| 2026-05-07 15:52 | 46.09300 | 6.21704 | 36004 ft | 484 kts | 39° |
| 2026-05-07 15:52 | 46.14168 | 6.28420 | 36010 ft | 485 kts | 41° |
| 2026-05-07 15:53 | 46.18928 | 6.35299 | 36018 ft | 485 kts | 42° |
| 2026-05-07 15:53 | 46.23649 | 6.42138 | 36021 ft | 484 kts | 42° |
| 2026-05-07 15:54 | 46.28425 | 6.48989 | 36025 ft | 484 kts | 41° |
| 2026-05-07 15:54 | 46.33210 | 6.55819 | 36024 ft | 483 kts | 41° |
| 2026-05-07 15:55 | 46.37984 | 6.62654 | 36023 ft | 482 kts | 42° |
| 2026-05-07 15:55 | 46.42742 | 6.69507 | 36024 ft | 482 kts | 42° |
| 2026-05-07 15:56 | 46.47486 | 6.76377 | 36024 ft | 482 kts | 42° |
| 2026-05-07 15:56 | 46.52232 | 6.83253 | 36025 ft | 482 kts | 42° |
| 2026-05-07 15:57 | 46.56853 | 6.90297 | 36027 ft | 483 kts | 49° |
| 2026-05-07 15:57 | 46.61078 | 6.97902 | 36036 ft | 483 kts | 49° |
| 2026-05-07 15:58 | 46.65295 | 7.05508 | 36045 ft | 482 kts | 49° |
| 2026-05-07 15:58 | 46.69511 | 7.13111 | 36037 ft | 482 kts | 49° |
| 2026-05-07 15:59 | 46.73716 | 7.20727 | 36035 ft | 482 kts | 49° |
| 2026-05-07 15:59 | 46.77906 | 7.28355 | 36036 ft | 482 kts | 49° |
| 2026-05-07 16:00 | 46.82063 | 7.35948 | 36033 ft | 482 kts | 49° |
| 2026-05-07 16:00 | 46.86272 | 7.43634 | 36034 ft | 481 kts | 49° |
| 2026-05-07 16:01 | 46.90417 | 7.51220 | 36029 ft | 481 kts | 49° |
| 2026-05-07 16:01 | 46.94568 | 7.58869 | 36029 ft | 480 kts | 49° |
| 2026-05-07 16:02 | 46.98718 | 7.66550 | 36026 ft | 481 kts | 49° |
| 2026-05-07 16:02 | 47.02864 | 7.74233 | 36033 ft | 480 kts | 49° |
| 2026-05-07 16:03 | 47.07000 | 7.81912 | 36034 ft | 480 kts | 50° |
| 2026-05-07 16:03 | 47.11132 | 7.89595 | 36035 ft | 479 kts | 50° |
| 2026-05-07 16:04 | 47.15031 | 7.97538 | 36043 ft | 480 kts | 56° |
| 2026-05-07 16:04 | 47.18574 | 8.05852 | 36045 ft | 480 kts | 56° |
| 2026-05-07 16:05 | 47.22114 | 8.14171 | 36043 ft | 480 kts | 56° |
| 2026-05-07 16:05 | 47.25644 | 8.22487 | 36048 ft | 479 kts | 57° |
| 2026-05-07 16:06 | 47.29157 | 8.30833 | 36046 ft | 479 kts | 59° |
| 2026-05-07 16:06 | 47.31687 | 8.39908 | 36048 ft | 480 kts | 71° |
| 2026-05-07 16:07 | 47.33750 | 8.49267 | 36050 ft | 480 kts | 71° |
| 2026-05-07 16:07 | 47.35826 | 8.58631 | 36051 ft | 480 kts | 71° |
| 2026-05-07 16:08 | 47.37886 | 8.67986 | 36044 ft | 480 kts | 71° |
| 2026-05-07 16:08 | 47.39919 | 8.77313 | 36053 ft | 480 kts | 72° |
| 2026-05-07 16:09 | 47.41954 | 8.86696 | 36047 ft | 480 kts | 72° |
| 2026-05-07 16:09 | 47.43991 | 8.96095 | 36048 ft | 481 kts | 72° |
| 2026-05-07 16:10 | 47.46017 | 9.05510 | 36050 ft | 481 kts | 72° |
| 2026-05-07 16:10 | 47.48030 | 9.14923 | 36047 ft | 480 kts | 72° |
| 2026-05-07 16:11 | 47.50040 | 9.24343 | 36054 ft | 480 kts | 72° |
| 2026-05-07 16:11 | 47.52047 | 9.33768 | 36046 ft | 480 kts | 72° |
| 2026-05-07 16:12 | 47.54048 | 9.43195 | 36043 ft | 480 kts | 72° |
| 2026-05-07 16:12 | 47.56035 | 9.52632 | 36031 ft | 481 kts | 72° |
| 2026-05-07 16:13 | 47.57957 | 9.62116 | 36028 ft | 481 kts | 78° |
| 2026-05-07 16:13 | 47.58413 | 9.71943 | 36030 ft | 479 kts | 95° |
| 2026-05-07 16:14 | 47.58011 | 9.81721 | 35850 ft | 475 kts | 95° |
| 2026-05-07 16:14 | 47.57814 | 9.86574 | 35435 ft | 470 kts | 95° |
| 2026-05-07 16:14 | 47.57618 | 9.91391 | 34906 ft | 467 kts | 95° |
| 2026-05-07 16:14 | 47.57418 | 9.96248 | 33262 ft | 482 kts | 95° |
| 2026-05-07 16:15 | 47.57209 | 10.01273 | 32289 ft | 486 kts | 94° |
| 2026-05-07 16:15 | 47.57008 | 10.06115 | 32102 ft | 459 kts | 94° |
| 2026-05-07 16:15 | 47.56815 | 10.10773 | 31966 ft | 446 kts | 94° |
| 2026-05-07 16:15 | 47.56623 | 10.15296 | 31714 ft | 436 kts | 94° |
| 2026-05-07 16:16 | 47.56429 | 10.19746 | 31316 ft | 431 kts | 94° |
| 2026-05-07 16:16 | 47.56231 | 10.24154 | 30866 ft | 427 kts | 94° |
| 2026-05-07 16:16 | 47.56033 | 10.28512 | 30406 ft | 423 kts | 94° |
| 2026-05-07 16:16 | 47.55837 | 10.32842 | 29972 ft | 419 kts | 94° |
| 2026-05-07 16:17 | 47.55641 | 10.37121 | 29532 ft | 415 kts | 93° |
| 2026-05-07 16:17 | 47.55446 | 10.41376 | 29065 ft | 413 kts | 94° |
| 2026-05-07 16:17 | 47.55251 | 10.45593 | 28599 ft | 410 kts | 94° |
| 2026-05-07 16:17 | 47.55078 | 10.49784 | 28133 ft | 407 kts | 90° |
| 2026-05-07 16:18 | 47.55302 | 10.53938 | 27669 ft | 403 kts | 78° |
| 2026-05-07 16:18 | 47.56046 | 10.57903 | 27209 ft | 398 kts | 66° |
| 2026-05-07 16:18 | 47.57258 | 10.61560 | 26729 ft | 393 kts | 57° |
| 2026-05-07 16:18 | 47.58662 | 10.65017 | 26243 ft | 391 kts | 57° |
| 2026-05-07 16:19 | 47.60055 | 10.68468 | 25783 ft | 388 kts | 57° |
| 2026-05-07 16:19 | 47.61429 | 10.71891 | 25331 ft | 385 kts | 57° |
| 2026-05-07 16:19 | 47.62800 | 10.75296 | 24877 ft | 383 kts | 56° |
| 2026-05-07 16:19 | 47.64221 | 10.78605 | 24427 ft | 379 kts | 54° |
| 2026-05-07 16:20 | 47.65691 | 10.81841 | 23973 ft | 376 kts | 53° |
| 2026-05-07 16:20 | 47.67172 | 10.85017 | 23505 ft | 373 kts | 53° |
| 2026-05-07 16:20 | 47.68651 | 10.88174 | 23040 ft | 371 kts | 53° |
| 2026-05-07 16:20 | 47.70111 | 10.91312 | 22558 ft | 369 kts | 53° |
| 2026-05-07 16:21 | 47.71555 | 10.94442 | 22077 ft | 367 kts | 54° |
| 2026-05-07 16:21 | 47.72986 | 10.97577 | 21592 ft | 365 kts | 54° |
| 2026-05-07 16:21 | 47.74399 | 11.00701 | 21120 ft | 364 kts | 54° |
| 2026-05-07 16:21 | 47.75804 | 11.03815 | 20632 ft | 361 kts | 55° |
| 2026-05-07 16:22 | 47.77197 | 11.06914 | 20149 ft | 360 kts | 55° |
| 2026-05-07 16:22 | 47.78591 | 11.09994 | 19672 ft | 359 kts | 54° |
| 2026-05-07 16:22 | 47.79983 | 11.13059 | 19208 ft | 357 kts | 54° |
| 2026-05-07 16:22 | 47.81364 | 11.16117 | 18757 ft | 355 kts | 55° |
| 2026-05-07 16:23 | 47.82736 | 11.19163 | 18300 ft | 353 kts | 55° |
| 2026-05-07 16:23 | 47.84098 | 11.22186 | 17835 ft | 351 kts | 55° |
| 2026-05-07 16:23 | 47.85452 | 11.25199 | 17365 ft | 349 kts | 55° |
| 2026-05-07 16:23 | 47.86801 | 11.28203 | 16894 ft | 348 kts | 55° |
| 2026-05-07 16:24 | 47.88137 | 11.31189 | 16446 ft | 345 kts | 55° |
| 2026-05-07 16:24 | 47.89462 | 11.34154 | 15996 ft | 343 kts | 55° |
| 2026-05-07 16:24 | 47.90780 | 11.37104 | 15552 ft | 341 kts | 55° |
| 2026-05-07 16:24 | 47.92088 | 11.40034 | 15114 ft | 338 kts | 55° |
| 2026-05-07 16:25 | 47.93384 | 11.42939 | 14683 ft | 336 kts | 55° |
| 2026-05-07 16:25 | 47.94676 | 11.45836 | 14262 ft | 334 kts | 55° |
| 2026-05-07 16:25 | 47.95955 | 11.48705 | 13816 ft | 331 kts | 55° |
| 2026-05-07 16:25 | 47.97228 | 11.51566 | 13402 ft | 329 kts | 55° |
| 2026-05-07 16:26 | 47.98475 | 11.54367 | 12991 ft | 327 kts | 55° |
| 2026-05-07 16:26 | 47.99727 | 11.57181 | 12560 ft | 324 kts | 55° |
| 2026-05-07 16:26 | 48.00971 | 11.59979 | 12125 ft | 323 kts | 56° |
| 2026-05-07 16:26 | 48.01808 | 11.61865 | 11842 ft | 321 kts | 56° |
| 2026-05-07 16:27 | 48.03430 | 11.65531 | 11288 ft | 318 kts | 55° |
| 2026-05-07 16:27 | 48.04647 | 11.68280 | 10874 ft | 316 kts | 56° |
| 2026-05-07 16:27 | 48.05853 | 11.71013 | 10474 ft | 313 kts | 56° |
| 2026-05-07 16:27 | 48.07049 | 11.73725 | 10084 ft | 311 kts | 56° |
| 2026-05-07 16:28 | 48.08227 | 11.76397 | 9811 ft | 305 kts | 56° |
| 2026-05-07 16:28 | 48.09382 | 11.79019 | 9463 ft | 300 kts | 55° |
| 2026-05-07 16:28 | 48.10531 | 11.81631 | 9081 ft | 299 kts | 56° |
| 2026-05-07 16:28 | 48.11665 | 11.84214 | 8719 ft | 297 kts | 56° |
| 2026-05-07 16:29 | 48.12793 | 11.86784 | 8351 ft | 294 kts | 55° |
| 2026-05-07 16:29 | 48.13914 | 11.89337 | 8053 ft | 290 kts | 55° |
| 2026-05-07 16:29 | 48.15025 | 11.91867 | 8023 ft | 292 kts | 55° |
| 2026-05-07 16:29 | 48.16146 | 11.94417 | 8026 ft | 294 kts | 56° |
| 2026-05-07 16:30 | 48.17263 | 11.96970 | 8022 ft | 293 kts | 55° |
| 2026-05-07 16:30 | 48.18372 | 11.99516 | 7709 ft | 291 kts | 55° |
| 2026-05-07 16:30 | 48.19474 | 12.02048 | 7345 ft | 289 kts | 55° |
| 2026-05-07 16:30 | 48.20563 | 12.04551 | 6977 ft | 286 kts | 55° |
| 2026-05-07 16:31 | 48.21650 | 12.07042 | 6605 ft | 284 kts | 55° |
| 2026-05-07 16:31 | 48.22727 | 12.09516 | 6238 ft | 283 kts | 55° |
| 2026-05-07 16:31 | 48.23801 | 12.11977 | 5887 ft | 281 kts | 55° |
| 2026-05-07 16:31 | 48.24867 | 12.14426 | 5520 ft | 279 kts | 55° |
| 2026-05-07 16:32 | 48.26114 | 12.16567 | 5302 ft | 267 kts | 32° |
| 2026-05-07 16:32 | 48.27768 | 12.17548 | 5183 ft | 249 kts | 3° |
| 2026-05-07 16:32 | 48.29451 | 12.17607 | 5068 ft | 237 kts | 355° |
| 2026-05-07 16:32 | 48.31089 | 12.17519 | 5003 ft | 234 kts | 354° |
| 2026-05-07 16:33 | 48.32717 | 12.17413 | 5004 ft | 234 kts | 354° |
| 2026-05-07 16:33 | 48.34314 | 12.17093 | 5007 ft | 230 kts | 336° |
| 2026-05-07 16:33 | 48.35626 | 12.15884 | 5018 ft | 213 kts | 314° |
| 2026-05-07 16:33 | 48.36455 | 12.14159 | 5009 ft | 194 kts | 294° |
| 2026-05-07 16:34 | 48.36789 | 12.12280 | 5013 ft | 185 kts | 275° |
| 2026-05-07 16:34 | 48.36718 | 12.10361 | 5009 ft | 184 kts | 265° |
| 2026-05-07 16:34 | 48.36578 | 12.08455 | 4991 ft | 184 kts | 265° |
| 2026-05-07 16:34 | 48.36437 | 12.06544 | 4837 ft | 183 kts | 265° |
| 2026-05-07 16:35 | 48.36297 | 12.04649 | 4611 ft | 182 kts | 265° |
| 2026-05-07 16:35 | 48.36204 | 12.03392 | 4463 ft | 182 kts | 265° |
| 2026-05-07 16:35 | 48.36064 | 12.01500 | 4225 ft | 182 kts | 265° |
| 2026-05-07 16:35 | 48.35922 | 11.99612 | 3976 ft | 181 kts | 265° |
| 2026-05-07 16:36 | 48.35782 | 11.97734 | 3746 ft | 177 kts | 265° |
| 2026-05-07 16:36 | 48.35647 | 11.95922 | 3519 ft | 173 kts | 265° |
| 2026-05-07 16:36 | 48.35513 | 11.94137 | 3284 ft | 171 kts | 265° |
| 2026-05-07 16:36 | 48.35380 | 11.92371 | 3056 ft | 170 kts | 265° |
| 2026-05-07 16:37 | 48.35251 | 11.90656 | 2832 ft | 157 kts | 265° |
| 2026-05-07 16:37 | 48.35131 | 11.89079 | 2629 ft | 149 kts | 266° |
| 2026-05-07 16:37 | 48.35015 | 11.87540 | 2434 ft | 147 kts | 266° |
| 2026-05-07 16:37 | 48.34900 | 11.86015 | 2244 ft | 146 kts | 266° |
| 2026-05-07 16:38 | 48.34791 | 11.84501 | 2051 ft | 146 kts | 267° |
| 2026-05-07 16:38 | 48.34676 | 11.82991 | 1857 ft | 145 kts | 265° |
| 2026-05-07 16:38 | 48.34560 | 11.81488 | 1673 ft | 145 kts | 265° |
| 2026-05-07 16:38 | 48.34441 | 11.79986 | 1485 ft | 141 kts | 265° |
| 2026-05-07 16:39 | 48.34344 | 11.78670 | 1486 ft | 112 kts | 263° |
| 2026-05-07 16:39 | 48.34264 | 11.77673 | 1475 ft | 74 kts | 263° |
| 2026-05-07 16:39 | 48.34263 | 11.77218 | 1478 ft | 39 kts | 291° |
| 2026-05-07 16:39 | 48.34360 | 11.76911 | 1484 ft | 26 kts | 291° |
| 2026-05-07 16:40 | 48.34424 | 11.76754 | 1479 ft | 14 kts | 336° |
| 2026-05-07 16:40 | 48.34473 | 11.76848 | 1480 ft | 14 kts | 81° |
| 2026-05-07 16:40 | 48.34486 | 11.77001 | 1485 ft | 16 kts | 83° |
| 2026-05-07 16:40 | 48.34499 | 11.77172 | 1482 ft | 17 kts | 83° |
| 2026-05-07 16:41 | 48.34513 | 11.77361 | 1485 ft | 19 kts | 84° |
| 2026-05-07 16:41 | 48.34528 | 11.77567 | 1483 ft | 21 kts | 83° |
| 2026-05-07 16:41 | 48.34547 | 11.77788 | 1485 ft | 22 kts | 83° |
| 2026-05-07 16:41 | 48.34565 | 11.78026 | 1473 ft | 24 kts | 84° |
| 2026-05-07 16:42 | 48.34584 | 11.78277 | 1485 ft | 25 kts | 83° |
| 2026-05-07 16:42 | 48.34605 | 11.78541 | 1485 ft | 26 kts | 83° |
| 2026-05-07 16:42 | 48.34626 | 11.78817 | 1473 ft | 27 kts | 83° |
| 2026-05-07 16:42 | 48.34646 | 11.79095 | 1473 ft | 27 kts | 84° |
| 2026-05-07 16:43 | 48.34669 | 11.79362 | 1479 ft | 21 kts | 84° |
| 2026-05-07 16:43 | 48.34675 | 11.79458 | 1482 ft | 0 kts | 84° |
| 2026-05-07 16:44 | 48.34675 | 11.79459 | 1485 ft | 1 kts | 84° |
| 2026-05-07 16:44 | 48.34678 | 11.79491 | 1479 ft | 5 kts | 78° |
| 2026-05-07 16:44 | 48.34703 | 11.79542 | 1479 ft | 7 kts | 28° |
| 2026-05-07 16:44 | 48.34764 | 11.79551 | 1485 ft | 10 kts | 4° |
| 2026-05-07 16:45 | 48.34848 | 11.79559 | 1482 ft | 13 kts | 359° |
| 2026-05-07 16:45 | 48.34904 | 11.79549 | 1486 ft | 7 kts | 354° |
| 2026-05-07 16:45 | 48.34909 | 11.79549 | 1476 ft | 0 kts | 354° |
| 2026-05-07 16:48 | 48.34916 | 11.79548 | 1473 ft | 3 kts | 358° |
| 2026-05-07 16:48 | 48.34951 | 11.79549 | 1485 ft | 8 kts | 4° |
| 2026-05-07 16:48 | 48.35003 | 11.79591 | 1476 ft | 10 kts | 42° |
| 2026-05-07 16:48 | 48.35073 | 11.79656 | 1474 ft | 13 kts | 11° |
| 2026-05-07 16:49 | 48.35162 | 11.79640 | 1478 ft | 11 kts | 353° |
| 2026-05-07 16:49 | 48.35222 | 11.79631 | 1485 ft | 8 kts | 356° |
| 2026-05-07 16:49 | 48.35269 | 11.79626 | 1482 ft | 6 kts | 353° |
| 2026-05-07 16:49 | 48.35301 | 11.79618 | 1483 ft | 4 kts | 352° |
| 2026-05-07 16:50 | 48.35322 | 11.79615 | 1485 ft | 2 kts | 353° |
| 2026-05-07 16:50 | 48.35332 | 11.79613 | 1485 ft | 2 kts | 354° |
| 2026-05-07 16:50 | 48.35352 | 11.79609 | 1481 ft | 4 kts | 353° |
| 2026-05-07 16:50 | 48.35386 | 11.79603 | 1485 ft | 6 kts | 353° |
| 2026-05-07 16:51 | 48.35439 | 11.79593 | 1485 ft | 10 kts | 353° |
| 2026-05-07 16:51 | 48.35503 | 11.79595 | 1472 ft | 5 kts | 23° |
| 2026-05-07 16:51 | 48.35526 | 11.79623 | 1475 ft | 3 kts | 56° |
| 2026-05-07 16:51 | 48.35525 | 11.79640 | 1481 ft | 2 kts | 89° |
| 2026-05-07 16:52 | 48.35530 | 11.79699 | 1480 ft | 7 kts | 83° |
| 2026-05-07 16:52 | 48.35532 | 11.79722 | 1481 ft | 0 kts | 84° |